createdAt,value
2023-01-09T00:00:21.034Z,98867.47
2023-01-09T00:02:24.693Z,98870.06
2023-01-09T00:04:28.100Z,98876.84
2023-01-09T00:06:31.460Z,98868.13
2023-01-09T00:08:34.834Z,98874.16
2023-01-09T00:10:38.271Z,98870.72
2023-01-09T00:12:41.591Z,98891.50
2023-01-09T00:14:44.998Z,98878.44
2023-01-09T00:16:49.994Z,98879.34
2023-01-09T00:18:53.517Z,98870.69
2023-01-09T00:21:00.095Z,98870.63
2023-01-09T00:23:03.403Z,98878.41
2023-01-09T00:25:07.610Z,98880.13
2023-01-09T00:27:10.921Z,98873.22
2023-01-09T00:29:14.356Z,98877.59
2023-01-09T00:31:18.871Z,98872.34
2023-01-09T00:33:26.712Z,98858.41
2023-01-09T00:35:30.058Z,98878.31
2023-01-09T00:37:33.468Z,98881.72
2023-01-09T00:39:37.489Z,98872.91
2023-01-09T00:41:44.085Z,98873.81
2023-01-09T00:43:51.193Z,98873.91
2023-01-09T00:45:54.715Z,98877.41
2023-01-09T00:48:03.869Z,98858.25
2023-01-09T00:50:13.526Z,98878.22
2023-01-09T00:52:17.973Z,98872.25
2023-01-09T00:54:22.800Z,98885.22
2023-01-09T00:56:26.515Z,98882.59
2023-01-09T00:58:30.432Z,98886.94
2023-01-09T01:00:34.036Z,98885.91
2023-01-09T01:02:37.655Z,98882.44
2023-01-09T01:04:59.113Z,98894.59
2023-01-09T01:07:21.538Z,98892.03
2023-01-09T01:09:25.053Z,98888.53
2023-01-09T01:11:28.580Z,98898.00
2023-01-09T01:13:31.884Z,98899.91
2023-01-09T01:15:35.535Z,98903.25
2023-01-09T01:17:41.605Z,98908.44
2023-01-09T01:19:44.977Z,98900.72
2023-01-09T01:21:48.963Z,98903.25
2023-01-09T01:23:53.698Z,98900.72
2023-01-09T01:25:57.095Z,98908.56
2023-01-09T01:28:00.695Z,98924.09
2023-01-09T01:30:04.426Z,98909.22
2023-01-09T01:32:08.043Z,98909.38
2023-01-09T01:34:12.037Z,98904.97
2023-01-09T01:36:17.531Z,98909.25
2023-01-09T01:38:21.611Z,98910.94
2023-01-09T01:40:26.543Z,98911.91
2023-01-09T01:42:30.257Z,98914.53
2023-01-09T01:45:00.304Z,98913.88
2023-01-09T01:47:04.100Z,98917.34
2023-01-09T01:49:10.471Z,98923.53
2023-01-09T01:51:16.291Z,98926.13
2023-01-09T01:53:24.871Z,98928.00
2023-01-09T01:55:29.785Z,98926.31
2023-01-09T01:57:34.073Z,98933.28
2023-01-09T01:59:41.893Z,98937.63
2023-01-09T02:01:49.666Z,98940.19
2023-01-09T02:03:58.653Z,98933.22
2023-01-09T02:06:04.837Z,98942.69
2023-01-09T02:08:09.376Z,98934.97
2023-01-09T02:10:12.942Z,98944.34
2023-01-09T02:12:20.126Z,98951.09
2023-01-09T02:14:27.278Z,98944.94
2023-01-09T02:16:49.959Z,98939.78
2023-01-09T02:19:01.287Z,98941.44
2023-01-09T02:21:10.607Z,98945.69
2023-01-09T02:23:43.503Z,98944.91
2023-01-09T02:26:09.228Z,98929.34
2023-01-09T02:28:44.941Z,98938.97
2023-01-09T02:30:53.005Z,98935.50
2023-01-09T02:33:06.302Z,98933.88
2023-01-09T02:35:20.914Z,98941.63
2023-01-09T02:37:33.665Z,98938.31
2023-01-09T02:39:43.234Z,98934.84
2023-01-09T02:41:53.430Z,98935.75
2023-01-09T02:44:13.480Z,98937.47
2023-01-09T02:46:22.226Z,98944.47
2023-01-09T02:48:25.825Z,98954.91
2023-01-09T02:50:36.719Z,98958.38
2023-01-09T02:52:59.388Z,98958.31
2023-01-09T02:55:12.801Z,98946.97
2023-01-09T02:57:29.221Z,98962.53
2023-01-09T02:59:38.524Z,98968.53
2023-01-09T03:01:56.892Z,98961.66
2023-01-09T03:04:06.018Z,98965.91
2023-01-09T03:06:16.096Z,98965.03
2023-01-09T03:08:24.253Z,98956.34
2023-01-09T03:10:34.343Z,98972.97
2023-01-09T03:12:39.280Z,98968.56
2023-01-09T03:14:49.833Z,98966.78
2023-01-09T03:17:01.656Z,98976.22
2023-01-09T03:19:07.538Z,98978.84
2023-01-09T03:21:13.003Z,98956.13
2023-01-09T03:23:16.595Z,98978.94
2023-01-09T03:25:20.051Z,98991.69
2023-01-09T03:27:23.592Z,98989.25
2023-01-09T03:29:29.463Z,98994.47
2023-01-09T03:31:33.168Z,98997.13
2023-01-09T03:33:37.826Z,98997.84
2023-01-09T03:35:41.187Z,98981.22
2023-01-09T03:37:44.589Z,99000.31
2023-01-09T03:39:48.109Z,99007.47
2023-01-09T03:41:51.551Z,99009.03
2023-01-09T03:43:54.946Z,98994.13
2023-01-09T03:45:58.689Z,99014.06
2023-01-09T03:48:02.387Z,99011.41
2023-01-09T03:50:09.651Z,99013.16
2023-01-09T03:52:13.971Z,99007.91
2023-01-09T03:54:17.834Z,99013.88
2023-01-09T03:56:21.308Z,99010.53
2023-01-09T03:58:26.049Z,99021.66
2023-01-09T04:00:29.410Z,99008.78
2023-01-09T04:02:32.811Z,99013.13
2023-01-09T04:04:36.421Z,99013.06
2023-01-09T04:06:41.154Z,99020.63
2023-01-09T04:08:46.329Z,99016.34
2023-01-09T04:10:51.303Z,99009.59
2023-01-09T04:12:54.552Z,99020.88
2023-01-09T04:14:57.909Z,99015.53
2023-01-09T04:17:01.389Z,99012.09
2023-01-09T04:19:05.018Z,99019.06
2023-01-09T04:21:08.325Z,99016.44
2023-01-09T04:23:13.073Z,99013.09
2023-01-09T04:25:16.789Z,99019.94
2023-01-09T04:27:20.145Z,99028.59
2023-01-09T04:29:23.805Z,99024.22
2023-01-09T04:31:27.569Z,98988.38
2023-01-09T04:33:30.927Z,99034.31
2023-01-09T04:35:35.802Z,99036.81
2023-01-09T04:37:40.356Z,99049.78
2023-01-09T04:39:46.063Z,99051.38
2023-01-09T04:41:52.675Z,99053.19
2023-01-09T04:43:56.099Z,99053.09
2023-01-09T04:45:59.455Z,99046.94
2023-01-09T04:48:03.481Z,99051.31
2023-01-09T04:50:07.565Z,99039.00
2023-01-09T04:52:10.896Z,99060.63
2023-01-09T04:54:14.599Z,99053.56
2023-01-09T04:56:19.421Z,99054.56
2023-01-09T04:58:22.836Z,99051.00
2023-01-09T05:00:26.172Z,99051.75
2023-01-09T05:02:29.610Z,99053.38
2023-01-09T05:04:33.787Z,99058.59
2023-01-09T05:06:37.415Z,99060.41
2023-01-09T05:08:41.379Z,99069.97
2023-01-09T05:10:44.763Z,99063.13
2023-01-09T05:12:49.718Z,99069.28
2023-01-09T05:14:53.296Z,99066.78
2023-01-09T05:16:57.247Z,99072.00
2023-01-09T05:19:00.627Z,99071.97
2023-01-09T05:21:04.805Z,99020.38
2023-01-09T05:23:08.511Z,99065.59
2023-01-09T05:25:11.969Z,99088.19
2023-01-09T05:27:16.865Z,99082.16
2023-01-09T05:29:21.612Z,99077.00
2023-01-09T05:31:26.398Z,99082.97
2023-01-09T05:33:30.461Z,99082.94
2023-01-09T05:35:33.843Z,99071.56
2023-01-09T05:37:37.657Z,99083.94
2023-01-09T05:39:40.976Z,99088.34
2023-01-09T05:41:44.310Z,99081.50
2023-01-09T05:43:48.642Z,99091.69
2023-01-09T05:45:53.457Z,99077.84
2023-01-09T05:47:57.455Z,99083.91
2023-01-09T05:50:00.968Z,99084.75
2023-01-09T05:52:04.912Z,99092.47
2023-01-09T05:54:08.428Z,99089.91
2023-01-09T05:56:12.085Z,99089.91
2023-01-09T05:58:15.539Z,99086.59
2023-01-09T06:00:20.193Z,99078.94
2023-01-09T06:02:25.002Z,99089.38
2023-01-09T06:04:29.950Z,99098.94
2023-01-09T06:06:33.498Z,99084.13
2023-01-09T06:08:36.968Z,99093.59
2023-01-09T06:10:40.408Z,99097.09
2023-01-09T06:12:50.736Z,99070.94
2023-01-09T06:14:54.220Z,99102.41
2023-01-09T06:16:58.233Z,99096.25
2023-01-09T06:19:02.933Z,99079.69
2023-01-09T06:21:06.983Z,99105.78
2023-01-09T06:23:12.195Z,99101.56
2023-01-09T06:25:17.239Z,99110.16
2023-01-09T06:27:20.718Z,99104.13
2023-01-09T06:29:24.179Z,99102.41
2023-01-09T06:31:27.667Z,99104.22
2023-01-09T06:33:31.962Z,99099.16
2023-01-09T06:35:36.766Z,99097.41
2023-01-09T06:37:40.702Z,99110.41
2023-01-09T06:39:44.196Z,99106.09
2023-01-09T06:41:48.683Z,99109.53
2023-01-09T06:43:52.292Z,99113.88
2023-01-09T06:45:55.985Z,99116.44
2023-01-09T06:47:59.678Z,99115.38
2023-01-09T06:50:03.074Z,99118.03
2023-01-09T06:52:08.014Z,99113.78
2023-01-09T06:54:12.081Z,99096.44
2023-01-09T06:56:15.531Z,99115.53
2023-01-09T06:58:19.205Z,99112.09
2023-01-09T07:00:23.351Z,99086.16
2023-01-09T07:02:26.831Z,99114.00
2023-01-09T07:04:30.377Z,99105.31
2023-01-09T07:06:34.480Z,99112.38
2023-01-09T07:08:39.409Z,99110.66
2023-01-09T07:10:43.302Z,99117.72
2023-01-09T07:12:47.122Z,99111.72
2023-01-09T07:14:50.619Z,99095.06
2023-01-09T07:16:54.087Z,99108.13
2023-01-09T07:18:58.264Z,99100.28
2023-01-09T07:21:01.767Z,99096.81
2023-01-09T07:23:05.428Z,99104.63
2023-01-09T07:25:11.233Z,99104.59
2023-01-09T07:27:14.673Z,99114.22
2023-01-09T07:29:18.001Z,99104.72
2023-01-09T07:31:22.056Z,99106.53
2023-01-09T07:33:25.521Z,99110.84
2023-01-09T07:35:28.936Z,99119.44
2023-01-09T07:37:33.131Z,99112.56
2023-01-09T07:39:36.605Z,99118.63
2023-01-09T07:41:41.683Z,99093.31
2023-01-09T07:43:46.660Z,99123.88
2023-01-09T07:45:50.013Z,99128.19
2023-01-09T07:47:53.549Z,99116.97
2023-01-09T07:49:57.548Z,99126.63
2023-01-09T07:52:01.164Z,99123.03
2023-01-09T07:54:04.574Z,99117.94
2023-01-09T07:56:08.665Z,99129.94
2023-01-09T07:58:13.448Z,99135.84
2023-01-09T08:00:18.101Z,99135.94
2023-01-09T08:02:21.641Z,99139.53
2023-01-09T08:04:25.491Z,99136.06
2023-01-09T08:06:30.058Z,99144.59
2023-01-09T08:08:33.753Z,99141.25
2023-01-09T08:10:37.336Z,99144.03
2023-01-09T08:12:43.938Z,99149.09
2023-01-09T08:14:48.729Z,99160.19
2023-01-09T08:16:52.551Z,99160.19
2023-01-09T08:18:55.991Z,99157.69
2023-01-09T08:20:59.447Z,99150.75
2023-01-09T08:23:02.892Z,99157.69
2023-01-09T08:25:07.217Z,99153.38
2023-01-09T08:27:10.561Z,99155.06
2023-01-09T08:29:14.113Z,99159.31
2023-01-09T08:31:19.476Z,99149.94
2023-01-09T08:33:23.030Z,99154.34
2023-01-09T08:35:26.497Z,99162.88
2023-01-09T08:37:30.109Z,99158.50
2023-01-09T08:39:33.401Z,99156.72
2023-01-09T08:41:54.527Z,99168.09
2023-01-09T08:44:15.684Z,99167.97
2023-01-09T08:46:48.281Z,99162.78
2023-01-09T08:48:51.775Z,99165.38
2023-01-09T08:50:55.186Z,99162.88
2023-01-09T08:52:58.638Z,99172.28
2023-01-09T08:55:01.953Z,99176.63
2023-01-09T08:57:05.938Z,99175.75
2023-01-09T08:59:10.990Z,99186.13
2023-01-09T09:01:14.537Z,99188.72
2023-01-09T09:03:19.330Z,99194.69
2023-01-09T09:05:23.935Z,99203.97
2023-01-09T09:07:27.464Z,99200.53
2023-01-09T09:09:30.859Z,99159.56
2023-01-09T09:11:34.830Z,99201.47
2023-01-09T09:13:38.238Z,99197.16
2023-01-09T09:15:41.680Z,99201.41
2023-01-09T09:17:45.561Z,99207.44
2023-01-09T09:19:50.316Z,99209.84
2023-01-09T09:21:53.677Z,99220.16
2023-01-09T09:23:57.871Z,99192.34
2023-01-09T09:26:01.190Z,99217.53
2023-01-09T09:28:04.688Z,99217.38
2023-01-09T09:30:09.734Z,99217.31
2023-01-09T09:32:13.051Z,99220.69
2023-01-09T09:34:16.475Z,99228.38
2023-01-09T09:36:21.162Z,99215.41
2023-01-09T09:38:24.513Z,99216.22
2023-01-09T09:40:53.352Z,99228.38
2023-01-09T09:43:43.346Z,99221.47
2023-01-09T09:45:55.160Z,99236.25
2023-01-09T09:48:08.868Z,99231.91
2023-01-09T09:50:32.296Z,99242.34
2023-01-09T09:52:45.048Z,99237.28
2023-01-09T09:54:50.896Z,99251.13
2023-01-09T09:56:57.711Z,99253.56
2023-01-09T09:59:03.753Z,99236.03
2023-01-09T10:01:08.925Z,99250.28
2023-01-09T10:03:33.041Z,99239.97
2023-01-09T10:05:40.930Z,99269.47
2023-01-09T10:07:49.396Z,99260.88
2023-01-09T10:09:55.704Z,99262.53
2023-01-09T10:12:03.919Z,99263.41
2023-01-09T10:14:13.222Z,99266.16
2023-01-09T10:16:36.689Z,99263.34
2023-01-09T10:18:51.023Z,99263.25
2023-01-09T10:20:59.136Z,99263.34
2023-01-09T10:23:21.405Z,99256.41
2023-01-09T10:25:32.540Z,99236.50
2023-01-09T10:27:51.724Z,99264.47
2023-01-09T10:30:05.319Z,99260.19
2023-01-09T10:32:36.105Z,99253.31
2023-01-09T10:34:51.188Z,99252.59
2023-01-09T10:37:05.628Z,99252.81
2023-01-09T10:39:17.767Z,99255.50
2023-01-09T10:41:26.307Z,99253.94
2023-01-09T10:43:35.977Z,99250.72
2023-01-09T10:45:43.563Z,99261.38
2023-01-09T10:47:47.329Z,99262.38
2023-01-09T10:49:52.523Z,99258.13
2023-01-09T10:52:15.387Z,99268.41
2023-01-09T10:54:23.679Z,99278.78
2023-01-09T10:56:29.028Z,99256.22
2023-01-09T10:58:32.557Z,99276.28
2023-01-09T11:00:35.938Z,99264.94
2023-01-09T11:02:41.406Z,99269.28
2023-01-09T11:04:44.812Z,99269.38
2023-01-09T11:06:52.108Z,99268.56
2023-01-09T11:08:57.560Z,99272.00
2023-01-09T11:11:03.861Z,99255.69
2023-01-09T11:13:20.276Z,99266.69
2023-01-09T11:15:31.086Z,99270.91
2023-01-09T11:17:34.480Z,99272.56
2023-01-09T11:19:38.293Z,99281.28
2023-01-09T11:21:42.007Z,99282.03
2023-01-09T11:23:45.402Z,99278.59
2023-01-09T11:25:53.602Z,99288.22
2023-01-09T11:28:08.260Z,99287.47
2023-01-09T11:30:17.399Z,99289.09
2023-01-09T11:32:24.158Z,99297.84
2023-01-09T11:34:30.273Z,99303.13
2023-01-09T11:36:33.992Z,99297.88
2023-01-09T11:38:56.661Z,99309.16
2023-01-09T11:41:02.721Z,99300.34
2023-01-09T11:43:19.040Z,99305.56
2023-01-09T11:45:27.204Z,99314.22
2023-01-09T11:47:40.781Z,99311.72
2023-01-09T11:49:46.396Z,99317.81
2023-01-09T11:52:12.919Z,99313.41
2023-01-09T11:54:23.981Z,99310.91
2023-01-09T11:56:27.849Z,99315.94
2023-01-09T11:58:35.142Z,99306.31
2023-01-09T12:00:46.055Z,99327.41
2023-01-09T12:03:05.734Z,99309.94
2023-01-09T12:05:21.307Z,99321.34
2023-01-09T12:07:46.645Z,99296.97
2023-01-09T12:10:02.306Z,99323.94
2023-01-09T12:12:18.295Z,99335.16
2023-01-09T12:14:35.246Z,99334.19
2023-01-09T12:16:46.076Z,99328.22
2023-01-09T12:19:10.067Z,99316.69
2023-01-09T12:21:25.447Z,99321.00
2023-01-09T12:23:43.051Z,99341.06
2023-01-09T12:25:55.697Z,99330.69
2023-01-09T12:28:17.151Z,99334.88
2023-01-09T12:30:35.841Z,99337.56
2023-01-09T12:32:55.451Z,99346.94
2023-01-09T12:35:04.938Z,99346.94
2023-01-09T12:37:23.405Z,99349.69
2023-01-09T12:39:38.609Z,99346.13
2023-01-09T12:42:19.100Z,99341.66
2023-01-09T12:44:40.755Z,99338.16
2023-01-09T12:46:53.354Z,99341.56
2023-01-09T12:49:16.432Z,99352.78
2023-01-09T12:51:29.886Z,99348.28
2023-01-09T12:53:38.335Z,99348.22
2023-01-09T12:55:44.317Z,99346.50
2023-01-09T12:57:51.237Z,99295.13
2023-01-09T12:59:58.139Z,99337.19
2023-01-09T13:02:11.122Z,99350.22
2023-01-09T13:04:20.873Z,99353.75
2023-01-09T13:06:27.014Z,99345.81
2023-01-09T13:08:34.219Z,99357.97
2023-01-09T13:10:42.206Z,99365.09
2023-01-09T13:12:48.108Z,99356.34
2023-01-09T13:14:59.033Z,99366.91
2023-01-09T13:17:06.962Z,99373.72
2023-01-09T13:19:16.026Z,99377.06
2023-01-09T13:21:20.571Z,99379.97
2023-01-09T13:23:35.089Z,99383.63
2023-01-09T13:25:43.368Z,99386.31
2023-01-09T13:27:56.334Z,99388.91
2023-01-09T13:30:09.196Z,99398.63
2023-01-09T13:32:31.583Z,99397.53
2023-01-09T13:34:37.379Z,99403.59
2023-01-09T13:36:48.229Z,99409.69
2023-01-09T13:38:52.131Z,99411.25
2023-01-09T13:41:29.017Z,99408.44
2023-01-09T13:43:55.418Z,99419.63
2023-01-09T13:45:59.095Z,99425.72
2023-01-09T13:48:30.443Z,99413.56
2023-01-09T13:50:33.835Z,99427.31
2023-01-09T13:52:38.495Z,99434.22
2023-01-09T13:55:23.618Z,99437.84
2023-01-09T13:57:29.721Z,99413.44
2023-01-09T13:59:33.115Z,99443.81
2023-01-09T14:01:45.478Z,99449.84
2023-01-09T14:04:38.298Z,99429.91
2023-01-09T14:06:41.718Z,99462.03
2023-01-09T14:08:48.129Z,99461.00
2023-01-09T14:10:55.985Z,99459.34
2023-01-09T14:12:59.533Z,99468.78
2023-01-09T14:15:03.134Z,99475.69
2023-01-09T14:17:17.709Z,99459.09
2023-01-09T14:19:34.576Z,99475.75
2023-01-09T14:21:46.559Z,99494.06
2023-01-09T14:23:59.517Z,99495.56
2023-01-09T14:26:05.190Z,99494.75
2023-01-09T14:28:21.497Z,99493.91
2023-01-09T14:30:36.557Z,99511.97
2023-01-09T14:32:45.675Z,99507.88
2023-01-09T14:34:54.384Z,99518.22
2023-01-09T14:37:00.865Z,99515.56
2023-01-09T14:39:04.934Z,99518.22
2023-01-09T14:41:20.988Z,99521.53
2023-01-09T14:43:33.396Z,99523.19
2023-01-09T14:45:40.101Z,99531.91
2023-01-09T14:47:47.535Z,99528.03
2023-01-09T14:49:59.680Z,99536.00
2023-01-09T14:52:08.992Z,99526.28
2023-01-09T14:54:24.062Z,99550.72
2023-01-09T14:56:29.737Z,99545.59
2023-01-09T14:58:33.926Z,99555.09
2023-01-09T15:00:37.517Z,99564.66
2023-01-09T15:02:41.368Z,99569.31
2023-01-09T15:04:45.942Z,99573.88
2023-01-09T15:06:50.806Z,99553.03
2023-01-09T15:08:57.780Z,99586.97
2023-01-09T15:11:01.484Z,99594.50
2023-01-09T15:13:11.975Z,99601.22
2023-01-09T15:15:16.768Z,99610.72
2023-01-09T15:17:22.855Z,99615.34
2023-01-09T15:19:26.267Z,99615.97
2023-01-09T15:21:31.637Z,99622.03
2023-01-09T15:23:36.337Z,99627.25
2023-01-09T15:25:40.902Z,99627.94
2023-01-09T15:27:50.649Z,99634.22
2023-01-09T15:29:54.453Z,99641.03
2023-01-09T15:32:04.513Z,99647.88
2023-01-09T15:34:08.021Z,99654.09
2023-01-09T15:36:15.916Z,99655.63
2023-01-09T15:38:24.040Z,99655.81
2023-01-09T15:40:34.026Z,99666.94
2023-01-09T15:42:58.995Z,99663.16
2023-01-09T15:45:05.196Z,99659.78
2023-01-09T15:47:14.612Z,99657.56
2023-01-09T15:49:19.185Z,99662.03
2023-01-09T15:51:23.107Z,99666.50
2023-01-09T15:53:28.243Z,99672.59
2023-01-09T15:55:36.028Z,99681.31
2023-01-09T15:57:39.507Z,99683.09
2023-01-09T15:59:42.983Z,99689.00
2023-01-09T16:02:06.315Z,99687.34
2023-01-09T16:04:11.910Z,99702.09
2023-01-09T16:06:20.899Z,99703.03
2023-01-09T16:08:29.324Z,99693.16
2023-01-09T16:10:36.103Z,99712.78
2023-01-09T16:12:41.448Z,99723.09
2023-01-09T16:14:51.264Z,99706.63
2023-01-09T16:17:00.150Z,99725.50
2023-01-09T16:19:03.593Z,99729.91
2023-01-09T16:21:32.023Z,99728.88
2023-01-09T16:23:36.827Z,99727.00
2023-01-09T16:25:41.558Z,99728.59
2023-01-09T16:27:44.891Z,99726.28
2023-01-09T16:29:49.825Z,99731.25
2023-01-09T16:31:59.946Z,99724.22
2023-01-09T16:34:06.853Z,99732.06
2023-01-09T16:36:13.302Z,99736.38
2023-01-09T16:38:17.229Z,99740.69
2023-01-09T16:40:29.812Z,99730.13
2023-01-09T16:42:52.256Z,99757.09
2023-01-09T16:44:55.580Z,99762.28
2023-01-09T16:47:00.157Z,99760.59
2023-01-09T16:49:03.607Z,99759.72
2023-01-09T16:51:07.198Z,99760.00
2023-01-09T16:53:16.724Z,99767.69
2023-01-09T16:55:20.169Z,99761.63
2023-01-09T16:57:23.659Z,99769.69
2023-01-09T16:59:29.292Z,99779.84
2023-01-09T17:01:32.692Z,99782.38
2023-01-09T17:03:36.394Z,99787.56
2023-01-09T17:05:43.717Z,99791.13
2023-01-09T17:07:47.094Z,99798.84
2023-01-09T17:09:50.427Z,99783.28
2023-01-09T17:11:53.735Z,99801.69
2023-01-09T17:13:57.289Z,99801.63
2023-01-09T17:16:02.073Z,99805.50
2023-01-09T17:18:06.696Z,99768.81
2023-01-09T17:20:17.296Z,99799.72
2023-01-09T17:22:20.624Z,99807.56
2023-01-09T17:24:41.573Z,99809.41
2023-01-09T17:27:07.716Z,99807.06
2023-01-09T17:29:11.079Z,99812.50
2023-01-09T17:31:15.874Z,99819.84
2023-01-09T17:33:20.433Z,99804.72
2023-01-09T17:35:23.787Z,99823.03
2023-01-09T17:37:27.142Z,99834.66
2023-01-09T17:39:30.509Z,99830.69
2023-01-09T17:41:34.042Z,99822.75
2023-01-09T17:43:37.825Z,99836.91
2023-01-09T17:45:42.679Z,99846.09
2023-01-09T17:47:47.585Z,99853.66
2023-01-09T17:49:51.216Z,99849.28
2023-01-09T17:51:54.625Z,99856.06
2023-01-09T17:53:58.483Z,99861.84
2023-01-09T17:56:02.003Z,99870.81
2023-01-09T17:58:05.608Z,99851.44
2023-01-09T18:00:23.674Z,99863.53
2023-01-09T18:02:27.223Z,99868.38
2023-01-09T18:04:32.139Z,99883.03
2023-01-09T18:06:36.445Z,99890.47
2023-01-09T18:08:40.498Z,99885.50
2023-01-09T18:10:48.259Z,99882.25
2023-01-09T18:12:52.220Z,99886.53
2023-01-09T18:14:55.556Z,99899.66
2023-01-09T18:16:58.948Z,99907.91
2023-01-09T18:19:02.791Z,99919.81
2023-01-09T18:21:09.148Z,99906.84
2023-01-09T18:23:13.096Z,99922.16
2023-01-09T18:25:16.540Z,99918.53
2023-01-09T18:27:19.859Z,99926.13
2023-01-09T18:29:23.159Z,99933.41
2023-01-09T18:31:28.091Z,99927.28
2023-01-09T18:33:31.942Z,99942.09
2023-01-09T18:35:35.256Z,99941.13
2023-01-09T18:37:40.044Z,99945.31
2023-01-09T18:39:43.418Z,99944.50
2023-01-09T18:41:46.792Z,99954.88
2023-01-09T18:43:50.566Z,99950.50
2023-01-09T18:45:54.028Z,99959.41
2023-01-09T18:47:57.457Z,99962.91
2023-01-09T18:50:00.914Z,99970.38
2023-01-09T18:52:05.803Z,99971.75
2023-01-09T18:54:13.202Z,99973.03
2023-01-09T18:56:16.688Z,99976.91
2023-01-09T18:58:20.076Z,99984.19
2023-01-09T19:00:23.547Z,99992.00
2023-01-09T19:02:27.665Z,99996.66
2023-01-09T19:04:31.229Z,99998.22
2023-01-09T19:06:34.687Z,100007.13
2023-01-09T19:08:38.778Z,100005.66
2023-01-09T19:10:43.771Z,100009.44
2023-01-09T19:12:47.150Z,100002.50
2023-01-09T19:14:50.675Z,100009.16
2023-01-09T19:16:58.420Z,100013.84
2023-01-09T19:19:02.685Z,100010.22
2023-01-09T19:21:12.016Z,100011.94
2023-01-09T19:23:16.367Z,100022.19
2023-01-09T19:25:19.731Z,100029.09
2023-01-09T19:27:24.439Z,100025.75
2023-01-09T19:29:28.000Z,100025.94
2023-01-09T19:31:31.456Z,100024.41
2023-01-09T19:33:34.874Z,100037.47
2023-01-09T19:35:38.843Z,100029.50
2023-01-09T19:37:42.344Z,100051.09
2023-01-09T19:39:46.771Z,100051.75
2023-01-09T19:41:50.125Z,100054.72
2023-01-09T19:43:54.941Z,100063.28
2023-01-09T19:45:58.415Z,100054.00
2023-01-09T19:48:02.013Z,100058.75
2023-01-09T19:50:08.260Z,100059.09
2023-01-09T19:52:11.923Z,100070.41
2023-01-09T19:54:15.272Z,100081.38
2023-01-09T19:56:20.342Z,100073.06
2023-01-09T19:58:23.895Z,100073.94
2023-01-09T20:00:28.670Z,100085.75
2023-01-09T20:02:32.086Z,100087.34
2023-01-09T20:04:35.512Z,100089.13
2023-01-09T20:06:41.709Z,100097.66
2023-01-09T20:08:47.367Z,100109.06
2023-01-09T20:10:50.728Z,100099.53
2023-01-09T20:12:54.014Z,100094.97
2023-01-09T20:14:57.364Z,100114.34
2023-01-09T20:17:04.248Z,100125.78
2023-01-09T20:19:08.689Z,100132.41
2023-01-09T20:21:12.079Z,100137.81
2023-01-09T20:23:16.821Z,100133.22
2023-01-09T20:25:20.152Z,100133.81
2023-01-09T20:27:23.487Z,100135.44
2023-01-09T20:29:26.938Z,100143.03
2023-01-09T20:31:31.386Z,100150.06
2023-01-09T20:33:36.153Z,100151.69
2023-01-09T20:35:39.578Z,100153.38
2023-01-09T20:37:43.542Z,100166.31
2023-01-09T20:39:47.136Z,100172.31
2023-01-09T20:41:50.634Z,100168.75
2023-01-09T20:43:55.981Z,100159.69
2023-01-09T20:46:03.140Z,100171.34
2023-01-09T20:48:07.073Z,100182.59
2023-01-09T20:50:13.031Z,100181.81
2023-01-09T20:52:16.305Z,100188.88
2023-01-09T20:54:22.180Z,100179.72
2023-01-09T20:56:29.834Z,100205.34
2023-01-09T20:58:33.427Z,100206.31
2023-01-09T21:00:36.767Z,100214.53
2023-01-09T21:02:40.115Z,100218.53
2023-01-09T21:04:43.455Z,100225.63
2023-01-09T21:06:49.975Z,100230.94
2023-01-09T21:08:53.988Z,100240.28
2023-01-09T21:10:58.079Z,100243.78
2023-01-09T21:13:01.524Z,100247.34
2023-01-09T21:15:08.336Z,100251.38
2023-01-09T21:17:11.644Z,100255.03
2023-01-09T21:19:14.994Z,100260.56
2023-01-09T21:21:20.749Z,100267.41
2023-01-09T21:23:25.508Z,100266.63
2023-01-09T21:25:29.468Z,100275.00
2023-01-09T21:27:33.119Z,100285.38
2023-01-09T21:29:36.864Z,100287.03
2023-01-09T21:31:40.226Z,100278.56
2023-01-09T21:33:43.717Z,100267.72
2023-01-09T21:35:53.103Z,100283.75
2023-01-09T21:37:56.475Z,100297.91
2023-01-09T21:40:01.282Z,100304.47
2023-01-09T21:42:22.304Z,100310.47
2023-01-09T21:44:43.461Z,100306.31
2023-01-09T21:46:52.930Z,100308.19
2023-01-09T21:48:56.432Z,100316.69
2023-01-09T21:51:03.232Z,100315.28
2023-01-09T21:53:06.691Z,100305.28
2023-01-09T21:55:11.649Z,100316.78
2023-01-09T21:57:15.038Z,100316.09
2023-01-09T21:59:18.822Z,100332.31
2023-01-09T22:01:22.205Z,100326.91
2023-01-09T22:03:25.503Z,100338.19
2023-01-09T22:05:29.011Z,100344.19
2023-01-09T22:07:32.326Z,100351.22
2023-01-09T22:09:35.982Z,100358.03
2023-01-09T22:11:41.727Z,100307.84
2023-01-09T22:13:48.007Z,100363.56
2023-01-09T22:15:51.436Z,100363.19
2023-01-09T22:17:54.821Z,100360.41
2023-01-09T22:19:58.270Z,100345.66
2023-01-09T22:22:02.576Z,100364.44
2023-01-09T22:24:06.465Z,100370.59
2023-01-09T22:26:10.845Z,100370.31
2023-01-09T22:28:15.573Z,100383.56
2023-01-09T22:30:19.267Z,100381.44
2023-01-09T22:32:22.682Z,100386.63
2023-01-09T22:34:26.720Z,100349.16
2023-01-09T22:36:31.686Z,100403.47
2023-01-09T22:38:35.385Z,100407.84
2023-01-09T22:40:39.405Z,100415.72
2023-01-09T22:42:42.732Z,100416.50
2023-01-09T22:44:47.364Z,100415.69
2023-01-09T22:46:50.771Z,100419.91
2023-01-09T22:48:54.183Z,100428.81
2023-01-09T22:51:00.280Z,100437.69
2023-01-09T22:53:03.640Z,100427.91
2023-01-09T22:55:08.650Z,100441.00
2023-01-09T22:57:12.044Z,100440.59
2023-01-09T22:59:15.396Z,100445.13
2023-01-09T23:01:20.755Z,100399.06
2023-01-09T23:03:24.191Z,100453.13
2023-01-09T23:05:27.709Z,100465.31
2023-01-09T23:07:31.040Z,100469.63
2023-01-09T23:09:34.426Z,100470.63
2023-01-09T23:11:55.248Z,100459.84
2023-01-09T23:13:58.604Z,100482.09
2023-01-09T23:16:02.432Z,100486.94
2023-01-09T23:18:07.675Z,100493.38
2023-01-09T23:20:12.551Z,100497.00
2023-01-09T23:22:15.956Z,100499.59
2023-01-09T23:24:19.717Z,100503.16
2023-01-09T23:26:23.083Z,100502.06
2023-01-09T23:28:27.301Z,100508.56
2023-01-09T23:30:30.679Z,100516.22
2023-01-09T23:32:34.023Z,100490.25
2023-01-09T23:34:39.393Z,100529.16
2023-01-09T23:36:42.752Z,100531.06
2023-01-09T23:38:46.211Z,100529.66
2023-01-09T23:40:56.144Z,100526.81
2023-01-09T23:43:10.528Z,100537.22
2023-01-09T23:45:14.023Z,100533.91
2023-01-09T23:47:17.451Z,100536.47
2023-01-09T23:49:21.110Z,100550.91
2023-01-09T23:51:25.963Z,100554.19
2023-01-09T23:53:32.744Z,100509.91
2023-01-09T23:55:36.799Z,100545.47
2023-01-09T23:57:40.309Z,100553.41
2023-01-09T23:59:43.611Z,100561.97
